Time;durP1;ratioP1;P1;durP2;ratioP2;P2;SDS_P1;SDS_P2;PMS_P1;PMS_P2;Temp;Humidity;BMP_temperature;BMP_pressure;BME280_temperature;BME280_humidity;BME280_pressure;Samples;Min_cycle;Max_cycle;Signal;HPM_P1;HPM_P2
2022/11/24 00:01:15;;;;;;;34.23;11.50;;;;;;;;;;5050349;28;20415;-66
2022/11/24 00:03:42;;;;;;;34.93;11.93;;;;;;;;;;5048326;28;20041;-67
2022/11/24 00:06:09;;;;;;;35.80;11.57;;;;;;;;;;5049461;28;20098;-66
2022/11/24 00:08:36;;;;;;;40.27;12.87;;;;;;;;;;5047030;28;20056;-66
2022/11/24 00:11:06;;;;;;;28.83;10.73;;;;;;;;;;5048410;28;21133;-67
2022/11/24 00:13:32;;;;;;;30.73;9.73;;;;;;;;;;5048154;28;20507;-66
2022/11/24 00:16:25;;;;;;;36.80;11.47;;;;;;;;;;5047266;28;20545;-67
2022/11/24 00:18:52;;;;;;;26.17;9.73;;;;;;;;;;5062932;28;20155;-66
2022/11/24 00:21:19;;;;;;;30.50;9.97;;;;;;;;;;5064373;28;20083;-67
2022/11/24 00:23:45;;;;;;;23.50;9.53;;;;;;;;;;5055714;28;20418;-67
2022/11/24 00:26:14;;;;;;;28.20;9.97;;;;;;;;;;5066484;28;20396;-67
2022/11/24 00:28:41;;;;;;;26.43;8.77;;;;;;;;;;5067271;28;20049;-66
2022/11/24 00:31:18;;;;;;;33.73;9.80;;;;;;;;;;5067825;28;20502;-66
2022/11/24 00:33:45;;;;;;;42.00;9.73;;;;;;;;;;5068678;28;20044;-66
2022/11/24 00:36:11;;;;;;;29.50;9.30;;;;;;;;;;5068542;28;20143;-66
2022/11/24 00:38:37;;;;;;;29.57;8.80;;;;;;;;;;5066689;28;20053;-66
2022/11/24 00:41:03;;;;;;;32.73;8.10;;;;;;;;;;5068236;28;20044;-66
2022/11/24 00:43:29;;;;;;;34.53;10.83;;;;;;;;;;5067079;28;20117;-66
2022/11/24 00:45:55;;;;;;;38.33;9.67;;;;;;;;;;5049180;28;20044;-67
2022/11/24 00:48:22;;;;;;;33.97;7.87;;;;;;;;;;5064178;28;20511;-67
2022/11/24 00:50:55;;;;;;;26.07;9.40;;;;;;;;;;5067854;28;20056;-67
2022/11/24 00:53:21;;;;;;;28.38;7.53;;;;;;;;;;5068250;28;20040;-67
2022/11/24 00:55:51;;;;;;;33.63;8.10;;;;;;;;;;5066709;28;20553;-66
2022/11/24 00:58:17;;;;;;;31.27;7.27;;;;;;;;;;5067159;28;20064;-66
2022/11/24 01:00:43;;;;;;;39.03;8.93;;;;;;;;;;5067039;28;20045;-66
2022/11/24 01:03:09;;;;;;;34.30;8.30;;;;;;;;;;5066718;28;20493;-67
2022/11/24 01:05:36;;;;;;;31.90;7.87;;;;;;;;;;5066544;28;20109;-66
2022/11/24 01:08:02;;;;;;;33.93;6.93;;;;;;;;;;5060876;28;20040;-66
2022/11/24 01:10:28;;;;;;;45.80;8.03;;;;;;;;;;5047666;28;20056;-67
2022/11/24 01:12:54;;;;;;;35.43;8.03;;;;;;;;;;5064698;28;20563;-67
2022/11/24 01:15:20;;;;;;;34.73;8.40;;;;;;;;;;5067085;28;20129;-66
2022/11/24 01:17:46;;;;;;;32.03;7.10;;;;;;;;;;5067956;28;20045;-67
2022/11/24 01:20:13;;;;;;;27.07;7.43;;;;;;;;;;5068534;28;20042;-67
2022/11/24 01:22:41;;;;;;;21.50;6.57;;;;;;;;;;5070354;28;20051;-67
2022/11/24 01:25:07;;;;;;;36.37;6.70;;;;;;;;;;5071142;28;20049;-66
2022/11/24 01:27:33;;;;;;;41.63;9.27;;;;;;;;;;5070863;28;20135;-67
2022/11/24 01:30:00;;;;;;;34.90;6.70;;;;;;;;;;5069993;28;20048;-67
2022/11/24 01:32:26;;;;;;;38.37;6.33;;;;;;;;;;5069738;28;20666;-67
2022/11/24 01:34:52;;;;;;;29.70;6.80;;;;;;;;;;5069158;28;20051;-67
2022/11/24 01:37:18;;;;;;;36.60;6.90;;;;;;;;;;5069949;28;20041;-67
2022/11/24 01:39:44;;;;;;;36.97;6.90;;;;;;;;;;5070172;28;20631;-66
2022/11/24 01:42:10;;;;;;;36.00;6.20;;;;;;;;;;5069528;28;20040;-66
2022/11/24 01:44:36;;;;;;;29.27;6.17;;;;;;;;;;5055864;28;20099;-67
2022/11/24 01:47:12;;;;;;;31.50;7.20;;;;;;;;;;5051044;28;20073;-66
2022/11/24 01:49:44;;;;;;;26.97;5.50;;;;;;;;;;5056535;28;20055;-66
2022/11/24 01:52:14;;;;;;;26.70;6.57;;;;;;;;;;5070568;28;20139;-67
2022/11/24 01:54:54;;;;;;;33.67;6.27;;;;;;;;;;5070600;28;20048;-67
2022/11/24 01:57:24;;;;;;;25.80;6.83;;;;;;;;;;5059457;28;20522;-67
2022/11/24 01:59:53;;;;;;;38.33;8.53;;;;;;;;;;5050533;28;20056;-67
2022/11/24 02:02:19;;;;;;;32.17;6.73;;;;;;;;;;5050435;28;20037;-67
2022/11/24 02:04:46;;;;;;;31.47;5.60;;;;;;;;;;5050551;28;20037;-67
2022/11/24 02:07:12;;;;;;;23.20;4.77;;;;;;;;;;5050418;28;20074;-67
2022/11/24 02:09:38;;;;;;;31.43;6.87;;;;;;;;;;5049088;28;20124;-67
2022/11/24 02:12:05;;;;;;;31.97;6.17;;;;;;;;;;5058665;28;20049;-66
2022/11/24 02:14:33;;;;;;;36.37;9.20;;;;;;;;;;5050045;28;20049;-66
2022/11/24 02:16:59;;;;;;;34.40;6.87;;;;;;;;;;5050188;28;20406;-67
2022/11/24 02:19:35;;;;;;;27.63;5.73;;;;;;;;;;5050122;28;20110;-66
2022/11/24 02:22:02;;;;;;;23.87;5.83;;;;;;;;;;5050218;28;20056;-66
2022/11/24 02:24:41;;;;;;;24.53;5.40;;;;;;;;;;5032609;28;20553;-66
2022/11/24 02:27:07;;;;;;;24.13;5.20;;;;;;;;;;5050061;28;20545;-66
2022/11/24 02:29:33;;;;;;;30.90;7.67;;;;;;;;;;5064125;28;20079;-66
2022/11/24 02:32:01;;;;;;;35.80;6.20;;;;;;;;;;5064825;28;20052;-67
2022/11/24 02:34:27;;;;;;;24.57;5.30;;;;;;;;;;5049098;28;20552;-66
2022/11/24 02:36:53;;;;;;;27.50;5.97;;;;;;;;;;5048570;28;20454;-67
2022/11/24 02:39:19;;;;;;;31.53;5.03;;;;;;;;;;5049532;28;20103;-66
2022/11/24 02:41:51;;;;;;;31.83;5.97;;;;;;;;;;5057601;28;20482;-66
2022/11/24 02:44:18;;;;;;;30.17;5.10;;;;;;;;;;5049792;28;20040;-67
2022/11/24 02:46:44;;;;;;;18.27;4.67;;;;;;;;;;5049723;28;20067;-67
2022/11/24 02:49:10;;;;;;;23.90;5.60;;;;;;;;;;5052392;28;20044;-67
2022/11/24 02:51:37;;;;;;;32.57;5.43;;;;;;;;;;5068631;28;20086;-67
2022/11/24 02:54:03;;;;;;;25.60;5.23;;;;;;;;;;5049558;28;20049;-67
2022/11/24 02:56:29;;;;;;;25.50;4.57;;;;;;;;;;5049723;28;20411;-67
2022/11/24 02:58:55;;;;;;;25.23;5.00;;;;;;;;;;5049325;28;20101;-66
2022/11/24 03:01:21;;;;;;;27.37;4.90;;;;;;;;;;5049533;28;20044;-67
2022/11/24 03:03:47;;;;;;;23.73;4.40;;;;;;;;;;5049517;28;20052;-66
2022/11/24 03:06:13;;;;;;;33.20;4.77;;;;;;;;;;5049430;28;20041;-66
2022/11/24 03:08:39;;;;;;;25.20;4.50;;;;;;;;;;5049256;28;20628;-66
2022/11/24 03:11:06;;;;;;;23.70;3.67;;;;;;;;;;5048162;28;20415;-67
2022/11/24 03:13:32;;;;;;;24.63;3.97;;;;;;;;;;5056884;28;20064;-67
2022/11/24 03:15:58;;;;;;;21.33;3.90;;;;;;;;;;5068818;28;20095;-67
2022/11/24 03:18:24;;;;;;;23.47;3.47;;;;;;;;;;5068891;28;20044;-66
2022/11/24 03:20:50;;;;;;;23.63;5.33;;;;;;;;;;5069246;28;20040;-66
2022/11/24 03:23:16;;;;;;;19.33;4.10;;;;;;;;;;5067970;28;20052;-66
2022/11/24 03:25:42;;;;;;;19.73;3.97;;;;;;;;;;5067956;28;20091;-67
2022/11/24 03:28:08;;;;;;;25.00;4.60;;;;;;;;;;5068004;28;20044;-67
2022/11/24 03:30:34;;;;;;;23.33;4.70;;;;;;;;;;5067416;28;20059;-67
2022/11/24 03:33:01;;;;;;;24.80;3.67;;;;;;;;;;5068824;28;20135;-67
2022/11/24 03:35:27;;;;;;;23.10;4.70;;;;;;;;;;5050813;28;20132;-66
2022/11/24 03:37:53;;;;;;;15.67;4.50;;;;;;;;;;5048757;28;20132;-67
2022/11/24 03:40:19;;;;;;;23.73;4.33;;;;;;;;;;5050948;28;20098;-67
2022/11/24 03:42:45;;;;;;;14.07;3.40;;;;;;;;;;5067197;28;20135;-67
2022/11/24 03:45:11;;;;;;;24.70;4.67;;;;;;;;;;5067385;28;20057;-66
2022/11/24 03:47:37;;;;;;;27.80;5.20;;;;;;;;;;5067571;28;20053;-66
2022/11/24 03:50:04;;;;;;;19.97;3.60;;;;;;;;;;5054315;28;20667;-67
2022/11/24 03:52:30;;;;;;;21.00;4.50;;;;;;;;;;5046908;28;20462;-66
2022/11/24 03:54:56;;;;;;;24.53;4.47;;;;;;;;;;5055605;28;20045;-66
2022/11/24 03:57:22;;;;;;;24.03;4.50;;;;;;;;;;5048675;28;20525;-66
2022/11/24 03:59:48;;;;;;;25.67;4.30;;;;;;;;;;5047151;28;20045;-67
2022/11/24 04:02:14;;;;;;;23.37;4.40;;;;;;;;;;5048299;28;20106;-67
2022/11/24 04:04:40;;;;;;;23.90;3.77;;;;;;;;;;5047395;28;20049;-66
2022/11/24 04:07:06;;;;;;;22.27;5.60;;;;;;;;;;5047465;28;20045;-66
2022/11/24 04:09:32;;;;;;;20.17;3.90;;;;;;;;;;5048534;28;20045;-66
2022/11/24 04:14:43;;;;;;;13.30;4.17;;;;;;;;;;5048482;28;20132;-67
2022/11/24 04:17:09;;;;;;;18.93;3.40;;;;;;;;;;5065964;28;20426;-66
2022/11/24 04:19:35;;;;;;;21.53;4.00;;;;;;;;;;5068066;28;20874;-66
2022/11/24 04:22:01;;;;;;;20.77;4.07;;;;;;;;;;5059410;28;20446;-66
2022/11/24 04:24:27;;;;;;;23.03;4.93;;;;;;;;;;5055989;28;20053;-67
2022/11/24 04:26:53;;;;;;;19.50;3.47;;;;;;;;;;5057170;28;20612;-66
2022/11/24 04:29:19;;;;;;;19.40;4.13;;;;;;;;;;5068079;28;20123;-66
2022/11/24 04:31:46;;;;;;;18.73;4.00;;;;;;;;;;5068424;28;20049;-66
2022/11/24 04:34:12;;;;;;;20.13;4.40;;;;;;;;;;5057316;28;20045;-66
2022/11/24 04:36:39;;;;;;;24.13;5.57;;;;;;;;;;5048174;28;20415;-67
2022/11/24 04:39:06;;;;;;;16.40;4.13;;;;;;;;;;5047157;28;20048;-66
2022/11/24 04:41:32;;;;;;;20.57;3.80;;;;;;;;;;5048369;28;20049;-67
2022/11/24 04:43:58;;;;;;;14.53;3.77;;;;;;;;;;5047886;28;20049;-67
2022/11/24 04:46:24;;;;;;;22.30;4.37;;;;;;;;;;5058787;28;20067;-66
2022/11/24 04:48:50;;;;;;;22.33;4.53;;;;;;;;;;5067558;28;20822;-67
2022/11/24 04:51:16;;;;;;;22.37;5.27;;;;;;;;;;5057404;28;20053;-67
2022/11/24 04:53:42;;;;;;;27.60;4.40;;;;;;;;;;5047731;28;20499;-66
2022/11/24 04:56:08;;;;;;;19.87;3.20;;;;;;;;;;5051616;28;20053;-67
2022/11/24 04:58:34;;;;;;;20.67;3.47;;;;;;;;;;5052142;28;20542;-66
2022/11/24 05:01:01;;;;;;;23.73;4.10;;;;;;;;;;5033981;28;20059;-67
2022/11/24 05:03:27;;;;;;;20.60;4.03;;;;;;;;;;5052094;28;20132;-67
2022/11/24 05:05:53;;;;;;;18.87;5.90;;;;;;;;;;5051934;28;20045;-67
2022/11/24 05:08:19;;;;;;;20.50;3.90;;;;;;;;;;5051578;28;20522;-66
2022/11/24 05:10:45;;;;;;;19.70;4.17;;;;;;;;;;5051084;28;20071;-66
2022/11/24 05:13:12;;;;;;;26.27;3.87;;;;;;;;;;5065024;28;20102;-67
2022/11/24 05:15:39;;;;;;;24.43;3.90;;;;;;;;;;5070510;28;20499;-66
2022/11/24 05:18:06;;;;;;;20.50;4.00;;;;;;;;;;5071346;28;20411;-66
2022/11/24 05:20:32;;;;;;;19.67;3.90;;;;;;;;;;5071001;28;20040;-66
2022/11/24 05:23:02;;;;;;;28.83;6.47;;;;;;;;;;5071549;28;20045;-66
2022/11/24 05:25:28;;;;;;;26.40;5.67;;;;;;;;;;5070024;28;20052;-66
2022/11/24 05:27:54;;;;;;;24.40;4.67;;;;;;;;;;5070836;28;20072;-67
2022/11/24 05:30:20;;;;;;;15.57;4.30;;;;;;;;;;5071035;28;20512;-66
2022/11/24 05:32:46;;;;;;;19.67;4.80;;;;;;;;;;5070912;28;20048;-66
2022/11/24 05:35:13;;;;;;;24.60;4.50;;;;;;;;;;5065287;28;20091;-66
2022/11/24 05:37:39;;;;;;;16.60;3.40;;;;;;;;;;5051450;28;20051;-67
2022/11/24 05:40:05;;;;;;;19.77;4.57;;;;;;;;;;5051052;28;20075;-67
2022/11/24 05:42:40;;;;;;;24.63;3.97;;;;;;;;;;5049737;28;20521;-66
2022/11/24 05:45:08;;;;;;;22.40;4.40;;;;;;;;;;5050840;28;20045;-66
2022/11/24 05:47:34;;;;;;;25.93;4.97;;;;;;;;;;5063393;28;20048;-66
2022/11/24 05:50:00;;;;;;;19.40;3.50;;;;;;;;;;5070462;28;20036;-67
2022/11/24 05:52:26;;;;;;;24.23;5.23;;;;;;;;;;5069045;28;20435;-66
2022/11/24 05:54:52;;;;;;;17.43;4.47;;;;;;;;;;5069998;28;20078;-66
2022/11/24 05:57:18;;;;;;;30.07;7.27;;;;;;;;;;5070552;28;20048;-67
2022/11/24 05:59:45;;;;;;;22.43;4.83;;;;;;;;;;5067206;28;20522;-66
2022/11/24 06:02:11;;;;;;;20.77;4.47;;;;;;;;;;5070172;28;20052;-66
2022/11/24 06:04:37;;;;;;;29.47;8.17;;;;;;;;;;5070759;28;20074;-67
2022/11/24 06:07:04;;;;;;;25.43;4.80;;;;;;;;;;5058102;28;20534;-67
2022/11/24 06:09:30;;;;;;;21.60;5.30;;;;;;;;;;5048803;28;20045;-66
2022/11/24 06:11:56;;;;;;;25.93;5.10;;;;;;;;;;5048180;28;20053;-67
2022/11/24 06:14:22;;;;;;;31.27;5.23;;;;;;;;;;5046517;28;20102;-66
2022/11/24 06:16:48;;;;;;;13.57;4.87;;;;;;;;;;5048532;28;20049;-66
2022/11/24 06:19:14;;;;;;;22.13;5.17;;;;;;;;;;5048213;28;20045;-66
2022/11/24 06:21:40;;;;;;;25.10;4.17;;;;;;;;;;5046894;28;20044;-66
2022/11/24 06:24:06;;;;;;;23.30;4.73;;;;;;;;;;5049529;28;20053;-67
2022/11/24 06:26:33;;;;;;;25.30;4.77;;;;;;;;;;5048169;28;20507;-66
2022/11/24 06:28:59;;;;;;;27.63;6.07;;;;;;;;;;5060028;28;20051;-67
2022/11/24 06:31:25;;;;;;;20.30;4.17;;;;;;;;;;5064541;28;20086;-67
2022/11/24 06:33:52;;;;;;;26.57;5.53;;;;;;;;;;5069946;28;20094;-67
2022/11/24 06:36:18;;;;;;;21.47;4.63;;;;;;;;;;5068496;28;20048;-67
2022/11/24 06:38:44;;;;;;;25.43;5.20;;;;;;;;;;5068163;28;20094;-67
2022/11/24 06:41:15;;;;;;;25.73;6.67;;;;;;;;;;5069635;28;20076;-67
2022/11/24 06:43:41;;;;;;;23.87;5.33;;;;;;;;;;5064983;28;20071;-67
2022/11/24 06:46:07;;;;;;;33.03;6.60;;;;;;;;;;5049596;28;20049;-66
2022/11/24 06:48:33;;;;;;;26.30;5.27;;;;;;;;;;5050329;28;20052;-67
2022/11/24 06:51:00;;;;;;;31.10;5.97;;;;;;;;;;5048362;28;20056;-67
2022/11/24 06:53:26;;;;;;;22.60;4.73;;;;;;;;;;5049447;28;20492;-67
2022/11/24 06:55:53;;;;;;;17.40;4.53;;;;;;;;;;5058836;28;20079;-66
2022/11/24 06:58:19;;;;;;;20.03;5.00;;;;;;;;;;5063355;28;20049;-66
2022/11/24 07:00:45;;;;;;;28.93;5.63;;;;;;;;;;5058975;28;20503;-66
2022/11/24 07:03:15;;;;;;;28.30;5.70;;;;;;;;;;5068441;28;20445;-67
2022/11/24 07:05:41;;;;;;;23.17;5.23;;;;;;;;;;5064099;28;20044;-67
2022/11/24 07:08:07;;;;;;;25.63;6.50;;;;;;;;;;5065321;28;20074;-67
2022/11/24 07:10:33;;;;;;;32.03;6.60;;;;;;;;;;5067013;28;20058;-66
2022/11/24 07:13:02;;;;;;;23.87;5.97;;;;;;;;;;5068129;28;20043;-66
2022/11/24 07:15:29;;;;;;;22.60;5.47;;;;;;;;;;5067731;28;20063;-67
2022/11/24 07:17:55;;;;;;;26.97;6.23;;;;;;;;;;5066807;28;20399;-66
2022/11/24 07:20:21;;;;;;;20.67;5.33;;;;;;;;;;5066010;28;20048;-67
2022/11/24 07:22:47;;;;;;;26.67;6.67;;;;;;;;;;5064391;28;20521;-67
2022/11/24 07:25:13;;;;;;;17.53;6.13;;;;;;;;;;5066807;28;20071;-66
2022/11/24 07:27:40;;;;;;;26.60;5.43;;;;;;;;;;5048405;28;20040;-67
2022/11/24 07:30:07;;;;;;;24.53;5.37;;;;;;;;;;5061113;28;20441;-67
2022/11/24 07:32:33;;;;;;;22.37;6.20;;;;;;;;;;5055064;28;20056;-67
2022/11/24 07:34:59;;;;;;;20.13;5.67;;;;;;;;;;5060073;28;20055;-67
2022/11/24 07:37:26;;;;;;;20.93;5.73;;;;;;;;;;5068415;28;20056;-67
2022/11/24 07:39:52;;;;;;;30.37;6.00;;;;;;;;;;5047257;28;20128;-66
2022/11/24 07:42:18;;;;;;;19.13;5.73;;;;;;;;;;5047073;28;20093;-66
2022/11/24 07:44:44;;;;;;;25.50;5.90;;;;;;;;;;5048017;28;20473;-66
2022/11/24 07:47:10;;;;;;;20.40;5.43;;;;;;;;;;5048545;28;20052;-66
2022/11/24 07:49:36;;;;;;;16.00;5.73;;;;;;;;;;5047073;28;20094;-67
2022/11/24 07:52:03;;;;;;;27.07;7.77;;;;;;;;;;5048478;28;20083;-67
2022/11/24 07:54:30;;;;;;;28.47;5.90;;;;;;;;;;5061527;28;20059;-66
2022/11/24 07:56:56;;;;;;;26.73;6.17;;;;;;;;;;5068272;28;20067;-67
2022/11/24 07:59:22;;;;;;;18.33;6.87;;;;;;;;;;5068536;28;20045;-67
2022/11/24 08:01:49;;;;;;;25.57;5.77;;;;;;;;;;5067986;28;20520;-67
2022/11/24 08:04:15;;;;;;;16.87;5.30;;;;;;;;;;5067813;28;20450;-66
2022/11/24 08:06:41;;;;;;;23.17;6.30;;;;;;;;;;5066956;28;20052;-67
2022/11/24 08:09:07;;;;;;;32.37;7.70;;;;;;;;;;5068210;28;20052;-67
2022/11/24 08:11:33;;;;;;;17.80;5.33;;;;;;;;;;5067880;28;20086;-66
2022/11/24 08:13:59;;;;;;;22.50;6.20;;;;;;;;;;5067727;28;20049;-67
2022/11/24 08:16:25;;;;;;;24.23;5.00;;;;;;;;;;5067539;28;20053;-66
2022/11/24 08:18:55;;;;;;;18.57;5.63;;;;;;;;;;5066900;28;20045;-66
2022/11/24 08:21:22;;;;;;;21.73;5.30;;;;;;;;;;5068165;28;20418;-66
2022/11/24 08:23:48;;;;;;;25.93;5.93;;;;;;;;;;5067413;28;20384;-66
2022/11/24 08:26:17;;;;;;;23.33;5.70;;;;;;;;;;5067848;28;20453;-66
2022/11/24 08:28:44;;;;;;;16.73;4.60;;;;;;;;;;5067609;28;20124;-66
2022/11/24 08:31:15;;;;;;;15.67;4.23;;;;;;;;;;5071829;28;20146;-66
2022/11/24 08:33:41;;;;;;;17.33;5.03;;;;;;;;;;5072135;28;20449;-66
2022/11/24 08:36:08;;;;;;;21.00;4.10;;;;;;;;;;5071395;28;20503;-66
2022/11/24 08:38:34;;;;;;;18.80;4.50;;;;;;;;;;5071736;28;20058;-67
2022/11/24 08:41:01;;;;;;;22.83;5.63;;;;;;;;;;5064514;28;20048;-67
2022/11/24 08:43:28;;;;;;;18.33;4.07;;;;;;;;;;5066231;28;20052;-66
2022/11/24 08:45:54;;;;;;;16.07;4.50;;;;;;;;;;5065755;28;20044;-66
2022/11/24 08:48:20;;;;;;;10.87;3.63;;;;;;;;;;5058435;28;20491;-66
2022/11/24 08:50:46;;;;;;;15.23;4.07;;;;;;;;;;5069540;28;20048;-66
2022/11/24 08:53:12;;;;;;;10.10;3.40;;;;;;;;;;5070916;28;20060;-66
2022/11/24 08:55:38;;;;;;;10.80;4.03;;;;;;;;;;5071106;28;20041;-67
2022/11/24 08:58:04;;;;;;;9.23;3.63;;;;;;;;;;5071278;28;20044;-66
2022/11/24 09:00:30;;;;;;;10.43;3.53;;;;;;;;;;5070418;28;20044;-66
2022/11/24 09:02:57;;;;;;;11.03;2.77;;;;;;;;;;5070968;28;20056;-66
2022/11/24 09:05:23;;;;;;;10.73;3.40;;;;;;;;;;5070686;28;20051;-66
2022/11/24 09:07:49;;;;;;;14.07;3.53;;;;;;;;;;5071076;28;20055;-66
2022/11/24 09:10:15;;;;;;;11.10;2.83;;;;;;;;;;5070158;28;20048;-67
2022/11/24 09:12:43;;;;;;;7.33;2.73;;;;;;;;;;5070620;28;20041;-66
2022/11/24 09:15:09;;;;;;;7.27;2.50;;;;;;;;;;5070557;28;20060;-67
2022/11/24 09:17:36;;;;;;;9.23;2.97;;;;;;;;;;5070846;28;20127;-66
2022/11/24 09:20:03;;;;;;;7.87;3.03;;;;;;;;;;5070360;28;20078;-67
2022/11/24 09:22:30;;;;;;;5.80;1.80;;;;;;;;;;5069276;28;20051;-66
2022/11/24 09:24:56;;;;;;;9.00;2.53;;;;;;;;;;5069267;28;20055;-66
2022/11/24 09:27:22;;;;;;;7.20;2.20;;;;;;;;;;5070457;28;20596;-67
2022/11/24 09:29:48;;;;;;;5.87;2.10;;;;;;;;;;5070680;28;20044;-67
2022/11/24 09:32:14;;;;;;;4.40;2.40;;;;;;;;;;5069857;28;20051;-67
2022/11/24 09:34:40;;;;;;;7.77;2.30;;;;;;;;;;5070392;28;20071;-66
2022/11/24 09:37:06;;;;;;;5.70;2.87;;;;;;;;;;5069073;28;20048;-66
2022/11/24 09:39:32;;;;;;;6.47;2.57;;;;;;;;;;5070269;28;20505;-67
2022/11/24 09:42:08;;;;;;;5.47;2.80;;;;;;;;;;5068450;28;20060;-67
2022/11/24 09:44:44;;;;;;;6.73;2.30;;;;;;;;;;5069824;28;20036;-66
2022/11/24 09:47:32;;;;;;;7.27;3.03;;;;;;;;;;5068891;28;20048;-66
2022/11/24 09:50:00;;;;;;;6.77;2.43;;;;;;;;;;5070101;28;20048;-66
2022/11/24 09:52:44;;;;;;;8.13;2.90;;;;;;;;;;5069942;28;20036;-66
2022/11/24 09:55:30;;;;;;;6.37;2.60;;;;;;;;;;5070023;28;20418;-66
2022/11/24 09:58:07;;;;;;;9.07;2.30;;;;;;;;;;5069974;28;20048;-66
2022/11/24 10:00:33;;;;;;;8.63;2.80;;;;;;;;;;5068584;28;20037;-66
2022/11/24 10:03:00;;;;;;;6.17;2.80;;;;;;;;;;5069945;28;20094;-66
2022/11/24 10:05:27;;;;;;;5.37;2.90;;;;;;;;;;5069390;28;20182;-66
2022/11/24 10:08:02;;;;;;;6.90;3.20;;;;;;;;;;5051662;28;20044;-66
2022/11/24 10:10:34;;;;;;;9.07;3.47;;;;;;;;;;5069482;28;20128;-66
2022/11/24 10:13:06;;;;;;;7.07;3.20;;;;;;;;;;5068638;28;20081;-66
2022/11/24 10:15:51;;;;;;;9.00;3.20;;;;;;;;;;5069593;28;20048;-66
2022/11/24 10:18:20;;;;;;;7.33;2.90;;;;;;;;;;5069354;28;20098;-66
2022/11/24 10:20:49;;;;;;;5.43;3.03;;;;;;;;;;5069489;28;20390;-66
2022/11/24 10:23:18;;;;;;;6.10;3.03;;;;;;;;;;5069302;28;20053;-66
2022/11/24 10:25:51;;;;;;;4.83;3.00;;;;;;;;;;5069099;28;20640;-66
2022/11/24 10:28:17;;;;;;;7.15;3.20;;;;;;;;;;5069472;28;20359;-66
2022/11/24 10:30:43;;;;;;;7.63;3.30;;;;;;;;;;5067894;28;20041;-66
2022/11/24 10:33:20;;;;;;;9.00;3.40;;;;;;;;;;5069173;28;20367;-66
2022/11/24 10:35:52;;;;;;;10.07;4.07;;;;;;;;;;5067456;28;20126;-66
2022/11/24 10:38:21;;;;;;;8.40;3.80;;;;;;;;;;5068901;28;20044;-66
2022/11/24 10:40:59;;;;;;;10.00;4.10;;;;;;;;;;5069084;28;20055;-66
2022/11/24 10:43:28;;;;;;;8.10;3.90;;;;;;;;;;5069116;28;20052;-66
2022/11/24 10:46:20;;;;;;;7.47;3.30;;;;;;;;;;5068917;28;20155;-66
2022/11/24 10:48:51;;;;;;;8.30;3.30;;;;;;;;;;5067173;28;20059;-66
2022/11/24 10:51:30;;;;;;;10.03;3.37;;;;;;;;;;5068571;28;20503;-66
2022/11/24 10:54:04;;;;;;;6.70;3.00;;;;;;;;;;5068081;28;20045;-66
2022/11/24 10:56:40;;;;;;;11.37;4.50;;;;;;;;;;5068981;28;20411;-66
2022/11/24 10:59:25;;;;;;;8.70;3.77;;;;;;;;;;5067846;28;20135;-66
2022/11/24 11:01:51;;;;;;;9.23;3.70;;;;;;;;;;5067502;28;20395;-66
2022/11/24 11:04:21;;;;;;;9.77;4.07;;;;;;;;;;5067905;28;20520;-66
2022/11/24 11:06:47;;;;;;;10.03;4.17;;;;;;;;;;5068611;28;20036;-66
2022/11/24 11:09:15;;;;;;;8.17;3.70;;;;;;;;;;5068628;28;20436;-66
2022/11/24 11:11:42;;;;;;;11.27;4.47;;;;;;;;;;5067851;28;20127;-66
2022/11/24 11:14:41;;;;;;;9.30;4.47;;;;;;;;;;5085325;27;20404;-65
2022/11/24 11:17:34;;;;;;;11.03;4.30;;;;;;;;;;5082103;28;20146;-65
2022/11/24 11:20:15;;;;;;;9.60;3.53;;;;;;;;;;5085344;28;20044;-65
2022/11/24 11:22:42;;;;;;;5.70;3.57;;;;;;;;;;5083861;28;20125;-65
2022/11/24 11:25:26;;;;;;;7.57;3.30;;;;;;;;;;5084813;28;20591;-65
2022/11/24 11:27:52;;;;;;;;;;;;;;;;;;5085872;28;20609;-64
2022/11/24 11:30:20;;;;;;;8.47;2.90;;;;;;;;;;5085019;28;21228;-64
2022/11/24 11:32:57;;;;;;;11.53;3.10;;;;;;;;;;5085131;28;20469;-65
2022/11/24 11:35:27;;;;;;;7.07;3.23;;;;;;;;;;5084507;28;20147;-64
2022/11/24 11:37:54;;;;;;;12.13;3.40;;;;;;;;;;5084790;28;20048;-64
2022/11/24 11:40:26;;;;;;;9.70;2.50;;;;;;;;;;5084724;28;20363;-65
2022/11/24 11:42:55;;;;;;;13.20;3.60;;;;;;;;;;5084317;28;20048;-65
2022/11/24 11:45:27;;;;;;;13.97;3.63;;;;;;;;;;5084823;28;20052;-64
2022/11/24 11:48:02;;;;;;;7.43;2.80;;;;;;;;;;5084687;28;20510;-65
2022/11/24 11:50:55;;;;;;;15.50;4.67;;;;;;;;;;5083274;28;20586;-64
2022/11/24 11:53:30;;;;;;;12.37;4.00;;;;;;;;;;5075699;28;20127;-64
2022/11/24 11:56:04;;;;;;;5.80;2.67;;;;;;;;;;5083934;28;20083;-65
2022/11/24 11:58:48;;;;;;;12.00;3.73;;;;;;;;;;5083090;28;20132;-65
2022/11/24 12:01:33;;;;;;;7.90;2.90;;;;;;;;;;5084532;28;20131;-65
2022/11/24 12:04:14;;;;;;;10.07;3.23;;;;;;;;;;5082664;28;20044;-65
2022/11/24 12:06:50;;;;;;;11.90;3.40;;;;;;;;;;5084698;28;20127;-65
2022/11/24 12:09:40;;;;;;;9.40;3.40;;;;;;;;;;5084220;28;20525;-65
2022/11/24 12:12:06;;;;;;;9.53;3.30;;;;;;;;;;5084189;28;20119;-64
2022/11/24 12:14:40;;;;;;;11.63;3.20;;;;;;;;;;5084083;28;20087;-64
2022/11/24 12:17:26;;;;;;;8.40;3.60;;;;;;;;;;5083968;28;20499;-64
2022/11/24 12:20:11;;;;;;;13.87;4.13;;;;;;;;;;5079519;28;20059;-64
2022/11/24 12:22:51;;;;;;;10.83;3.37;;;;;;;;;;5082828;28;20097;-65
2022/11/24 12:25:18;;;;;;;13.60;3.00;;;;;;;;;;5072462;28;20140;-64
2022/11/24 12:27:50;;;;;;;15.60;3.90;;;;;;;;;;5068635;28;20454;-64
2022/11/24 12:30:16;;;;;;;11.53;4.13;;;;;;;;;;5070490;28;20048;-65
2022/11/24 12:32:49;;;;;;;10.27;3.60;;;;;;;;;;5070595;28;20109;-64
2022/11/24 12:35:15;;;;;;;10.33;3.40;;;;;;;;;;5070434;28;20045;-64
2022/11/24 12:37:59;;;;;;;9.67;3.13;;;;;;;;;;5070392;28;20123;-64
2022/11/24 12:40:36;;;;;;;14.33;4.20;;;;;;;;;;5069880;28;20043;-64
2022/11/24 12:43:11;;;;;;;10.63;3.23;;;;;;;;;;5070494;28;20174;-64
2022/11/24 12:45:55;;;;;;;11.63;3.27;;;;;;;;;;5070073;28;20144;-64
2022/11/24 12:48:31;;;;;;;12.90;4.10;;;;;;;;;;5065464;28;20032;-64
2022/11/24 12:50:57;;;;;;;11.27;3.60;;;;;;;;;;5070335;28;20052;-64
2022/11/24 12:53:34;;;;;;;15.20;3.70;;;;;;;;;;5069797;28;20478;-63
2022/11/24 12:56:09;;;;;;;15.53;3.50;;;;;;;;;;5050450;28;20600;-63
2022/11/24 12:58:41;;;;;;;8.77;3.00;;;;;;;;;;5049930;28;20123;-63
2022/11/24 13:01:23;;;;;;;9.83;3.13;;;;;;;;;;5050071;28;20132;-63
2022/11/24 13:04:21;;;;;;;14.57;4.73;;;;;;;;;;5050180;28;20128;-64
2022/11/24 13:07:10;;;;;;;17.13;3.63;;;;;;;;;;5037498;28;20056;-63
2022/11/24 13:09:36;;;;;;;14.60;3.73;;;;;;;;;;5051224;28;20048;-63
2022/11/24 13:12:12;;;;;;;9.60;3.20;;;;;;;;;;5069301;28;20045;-63
2022/11/24 13:14:39;;;;;;;11.70;3.37;;;;;;;;;;5059448;28;20083;-63
2022/11/24 13:17:24;;;;;;;17.97;3.50;;;;;;;;;;5069913;28;20422;-63
2022/11/24 13:19:50;;;;;;;10.70;2.90;;;;;;;;;;5069238;28;20048;-63
2022/11/24 13:22:22;;;;;;;11.77;3.10;;;;;;;;;;5068373;28;20044;-63
2022/11/24 13:25:04;;;;;;;17.33;3.30;;;;;;;;;;5069226;28;20052;-63
2022/11/24 13:27:39;;;;;;;10.63;3.23;;;;;;;;;;5054408;28;20124;-63
2022/11/24 13:30:25;;;;;;;15.13;3.10;;;;;;;;;;5049509;28;20098;-63
2022/11/24 13:32:59;;;;;;;13.47;2.97;;;;;;;;;;5056475;28;20036;-63
2022/11/24 13:35:25;;;;;;;12.23;3.10;;;;;;;;;;5064458;28;20055;-63
2022/11/24 13:37:51;;;;;;;12.97;4.20;;;;;;;;;;5056257;28;20162;-63
2022/11/24 13:40:19;;;;;;;11.03;2.57;;;;;;;;;;5069311;28;20044;-63
2022/11/24 13:42:54;;;;;;;9.50;3.00;;;;;;;;;;5055314;28;20102;-63
2022/11/24 13:45:40;;;;;;;13.57;2.87;;;;;;;;;;5049398;28;20041;-63
2022/11/24 13:48:18;;;;;;;11.70;2.57;;;;;;;;;;5048116;28;20053;-62
2022/11/24 13:50:51;;;;;;;13.40;3.43;;;;;;;;;;5049627;28;20084;-63
2022/11/24 13:53:17;;;;;;;;;;;;;;;;;;5049048;28;20059;-62
2022/11/24 13:55:43;;;;;;;;;;;;;;;;;;5049987;28;19921;-62
2022/11/24 13:58:09;;;;;;;;;;;;;;;;;;5063830;28;19923;-62
2022/11/24 14:00:35;;;;;;;;;;;;;;;;;;5076883;28;20424;-62
2022/11/24 14:03:01;;;;;;;;;;;;;;;;;;5068036;28;19920;-62
2022/11/24 14:05:27;;;;;;;;;;;;;;;;;;5068292;28;19928;-62
2022/11/24 14:07:53;;;;;;;;;;;;;;;;;;5069017;28;19920;-62
2022/11/24 14:10:19;;;;;;;;;;;;;;;;;;5066665;28;19920;-62
2022/11/24 14:12:45;;;;;;;;;;;;;;;;;;5068349;28;19982;-62
2022/11/24 14:15:11;;;;;;;;;;;;;;;;;;5067348;28;19934;-62
2022/11/24 14:17:37;;;;;;;;;;;;;;;;;;5068767;28;19920;-62
2022/11/24 14:20:03;;;;;;;;;;;;;;;;;;5068508;28;19960;-62
2022/11/24 14:22:29;;;;;;;;;;;;;;;;;;5068397;28;20309;-62
2022/11/24 14:24:55;;;;;;;;;;;;;;;;;;5069052;28;20399;-62
2022/11/24 14:27:20;;;;;;;;;;;;;;;;;;5068946;28;19920;-62
2022/11/24 14:29:46;;;;;;;;;;;;;;;;;;5068508;28;19967;-62
2022/11/24 14:32:12;;;;;;;;;;;;;;;;;;5060228;28;20398;-62
2022/11/24 14:34:38;;;;;;;;;;;;;;;;;;5065808;28;19971;-62
2022/11/24 14:37:04;;;;;;;;;;;;;;;;;;5068816;28;20038;-62
2022/11/24 14:39:30;;;;;;;;;;;;;;;;;;5054757;28;19931;-62
2022/11/24 14:41:56;;;;;;;;;;;;;;;;;;5053588;28;19931;-62
2022/11/24 14:44:23;;;;;;;;;;;;;;;;;;5055506;28;20013;-62
2022/11/24 14:46:49;;;;;;;;;;;;;;;;;;5066101;28;19920;-62
2022/11/24 14:49:14;;;;;;;;;;;;;;;;;;5066902;28;19927;-61
2022/11/24 14:51:40;;;;;;;;;;;;;;;;;;5068537;28;19980;-61
2022/11/24 14:54:06;;;;;;;;;;;;;;;;;;5065461;28;19935;-62